Data Viewer
| City | State | Eastern Time | Source | Temp | DewPt | RH | BP | 5 Min Precip | Wind Speed | Wind Dir | 5 Min Wind Max | 5 Min Wind Max Dir |
|---|---|---|---|---|---|---|---|---|---|---|---|---|
| Piscataway 1 | NJ | 2026-05-02 00:35 | NJDOT | 54 | 41 | 62 | 0 | |||||
| Piscataway 1 | NJ | 2026-05-02 17:05 | NJDOT | 61 | 28 | 28 | 0 | |||||
| Piscataway 1 | NJ | 2026-05-02 15:50 | NJDOT | 63 | 30 | 29 | 7 | |||||
| Piscataway 1 | NJ | 2026-05-02 16:00 | NJDOT | 63 | 32 | 30 | 4 | |||||
| Piscataway 1 | NJ | 2026-05-02 16:05 | NJDOT | 63 | 31 | 29 | 8 | |||||
| Piscataway 1 | NJ | 2026-05-02 16:10 | NJDOT | 63 | 31 | 31 | 8 | |||||
| Piscataway 1 | NJ | 2026-05-02 16:15 | NJDOT | 61 | 31 | 31 | 0 | |||||
| Piscataway 1 | NJ | 2026-05-02 16:20 | NJDOT | 61 | 29 | 29 | 4 | |||||
| Piscataway 1 | NJ | 2026-05-02 16:25 | NJDOT | 60 | 29 | 30 | 4 | |||||
| Piscataway 1 | NJ | 2026-05-02 16:30 | NJDOT | 61 | 29 | 29 | 5 | |||||
| Piscataway 1 | NJ | 2026-05-02 16:35 | NJDOT | 62 | 30 | 29 | 5 | |||||
| Piscataway 1 | NJ | 2026-05-02 16:40 | NJDOT | 63 | 31 | 34 | 4 | |||||
| Piscataway 1 | NJ | 2026-05-02 16:45 | NJDOT | 64 | 31 | 34 | 6 | |||||
| Piscataway 1 | NJ | 2026-05-02 16:50 | NJDOT | 64 | 31 | 30 | 6 | |||||
| Piscataway 1 | NJ | 2026-05-02 17:00 | NJDOT | 61 | 29 | 29 | 1 | |||||
| Piscataway 1 | NJ | 2026-05-02 17:10 | NJDOT | 61 | 27 | 27 | 0 | |||||
| Piscataway 1 | NJ | 2026-05-02 15:40 | NJDOT | 62 | 31 | 29 | 8 | |||||
| Piscataway 1 | NJ | 2026-05-02 17:15 | NJDOT | 61 | 30 | 32 | 0 | |||||
| Piscataway 1 | NJ | 2026-05-02 17:20 | NJDOT | 62 | 30 | 29 | 6 | |||||
| Piscataway 1 | NJ | 2026-05-02 17:25 | NJDOT | 61 | 29 | 30 | 6 | |||||
| Piscataway 1 | NJ | 2026-05-02 17:30 | NJDOT | 62 | 30 | 30 | 6 | |||||
| Piscataway 1 | NJ | 2026-05-02 17:35 | NJDOT | 60 | 30 | 31 | 6 | |||||
| Piscataway 1 | NJ | 2026-05-02 17:40 | NJDOT | 60 | 29 | 31 | 4 | |||||
| Piscataway 1 | NJ | 2026-05-02 17:45 | NJDOT | 59 | 29 | 32 | 4 | |||||
| Piscataway 1 | NJ | 2026-05-02 17:50 | NJDOT | 59 | 31 | 34 | 4 | |||||
| Piscataway 1 | NJ | 2026-05-02 18:00 | NJDOT | 59 | 30 | 32 | 0 | |||||
| Piscataway 1 | NJ | 2026-05-02 18:05 | NJDOT | 59 | 29 | 32 | 0 | |||||
| Piscataway 1 | NJ | 2026-05-02 18:10 | NJDOT | 59 | 30 | 32 | 0 | |||||
| Piscataway 1 | NJ | 2026-05-02 18:15 | NJDOT | 59 | 29 | 31 | 0 | |||||
| Piscataway 1 | NJ | 2026-05-02 18:20 | NJDOT | 60 | 28 | 30 | 0 | |||||
| Piscataway 1 | NJ | 2026-05-02 15:45 | NJDOT | 63 | 33 | 32 | 8 | |||||
| Piscataway 1 | NJ | 2026-05-02 15:35 | NJDOT | 63 | 31 | 29 | 0 | |||||
| Piscataway 1 | NJ | 2026-05-02 18:30 | NJDOT | 60 | 29 | 31 | 0 | |||||
| Piscataway 1 | NJ | 2026-05-02 14:10 | NJDOT | 59 | 33 | 37 | 0 | |||||
| Piscataway 1 | NJ | 2026-05-02 13:00 | NJDOT | 58 | 34 | 39 | 3 | |||||
| Piscataway 1 | NJ | 2026-05-02 13:05 | NJDOT | 59 | 38 | 44 | 5 | |||||
| Piscataway 1 | NJ | 2026-05-02 13:10 | NJDOT | 60 | 38 | 43 | 7 | |||||
| Piscataway 1 | NJ | 2026-05-02 13:15 | NJDOT | 61 | 38 | 37 | 7 | |||||
| Piscataway 1 | NJ | 2026-05-02 13:20 | NJDOT | 62 | 38 | 35 | 0 | |||||
| Piscataway 1 | NJ | 2026-05-02 13:25 | NJDOT | 60 | 38 | 38 | 7 | |||||
| Piscataway 1 | NJ | 2026-05-02 13:30 | NJDOT | 60 | 38 | 37 | 7 | |||||
| Piscataway 1 | NJ | 2026-05-02 13:35 | NJDOT | 60 | 38 | 38 | 6 | |||||
| Piscataway 1 | NJ | 2026-05-02 13:40 | NJDOT | 60 | 38 | 39 | 11 | |||||
| Piscataway 1 | NJ | 2026-05-02 13:45 | NJDOT | 60 | 37 | 38 | 11 | |||||
| Piscataway 1 | NJ | 2026-05-02 13:50 | NJDOT | 61 | 35 | 35 | 0 | |||||
| Piscataway 1 | NJ | 2026-05-02 14:00 | NJDOT | 60 | 35 | 39 | 0 | |||||
| Piscataway 1 | NJ | 2026-05-02 14:05 | NJDOT | 60 | 34 | 37 | 0 | |||||
| Piscataway 1 | NJ | 2026-05-02 14:15 | NJDOT | 61 | 34 | 36 | 0 | |||||
| Piscataway 1 | NJ | 2026-05-02 15:30 | NJDOT | 62 | 33 | 28 | 2 | |||||
| Piscataway 1 | NJ | 2026-05-02 14:20 | NJDOT | 61 | 36 | 36 | 0 | |||||
| Piscataway 1 | NJ | 2026-05-02 14:25 | NJDOT | 61 | 35 | 32 | 0 | |||||
| Piscataway 1 | NJ | 2026-05-02 14:30 | NJDOT | 59 | 35 | 34 | 0 | |||||
| Piscataway 1 | NJ | 2026-05-02 14:35 | NJDOT | 60 | 35 | 35 | 0 | |||||
| Piscataway 1 | NJ | 2026-05-02 14:40 | NJDOT | 61 | 35 | 32 | 0 | |||||
| Piscataway 1 | NJ | 2026-05-02 14:45 | NJDOT | 62 | 36 | 38 | 8 | |||||
| Piscataway 1 | NJ | 2026-05-02 14:50 | NJDOT | 62 | 33 | 33 | 9 | |||||
| Piscataway 1 | NJ | 2026-05-02 15:00 | NJDOT | 61 | 34 | 36 | 6 | |||||
| Piscataway 1 | NJ | 2026-05-02 15:05 | NJDOT | 61 | 32 | 33 | 6 | |||||
| Piscataway 1 | NJ | 2026-05-02 15:10 | NJDOT | 61 | 32 | 33 | 6 | |||||
| Piscataway 1 | NJ | 2026-05-02 15:15 | NJDOT | 62 | 32 | 32 | 4 | |||||
| Piscataway 1 | NJ | 2026-05-02 15:20 | NJDOT | 63 | 33 | 32 | 4 | |||||
| Piscataway 1 | NJ | 2026-05-02 15:25 | NJDOT | 62 | 33 | 29 | 2 | |||||
| Piscataway 1 | NJ | 2026-05-02 18:25 | NJDOT | 60 | 29 | 30 | 0 | |||||
| Piscataway 1 | NJ | 2026-05-02 18:35 | NJDOT | 59 | 29 | 31 | 4 | |||||
| Piscataway 1 | NJ | 2026-05-02 12:35 | NJDOT | 58 | 37 | 45 | 0 | |||||
| Piscataway 1 | NJ | 2026-05-02 23:10 | NJDOT | 52 | 28 | 40 | 0 | |||||
| Piscataway 1 | NJ | 2026-05-02 22:00 | NJDOT | 54 | 28 | 35 | 5 | |||||
| Piscataway 1 | NJ | 2026-05-02 22:05 | NJDOT | 54 | 28 | 36 | 5 | |||||
| Piscataway 1 | NJ | 2026-05-02 22:10 | NJDOT | 54 | 28 | 36 | 0 | |||||
| Piscataway 1 | NJ | 2026-05-02 22:15 | NJDOT | 54 | 29 | 37 | 0 | |||||
| Piscataway 1 | NJ | 2026-05-02 22:20 | NJDOT | 54 | 28 | 36 | 0 | |||||
| Piscataway 1 | NJ | 2026-05-02 22:25 | NJDOT | 54 | 27 | 36 | 6 | |||||
| Piscataway 1 | NJ | 2026-05-02 22:30 | NJDOT | 53 | 27 | 35 | 6 | |||||
| Piscataway 1 | NJ | 2026-05-02 22:35 | NJDOT | 53 | 27 | 36 | 0 | |||||
| Piscataway 1 | NJ | 2026-05-02 22:40 | NJDOT | 53 | 27 | 36 | 0 | |||||
| Piscataway 1 | NJ | 2026-05-02 22:45 | NJDOT | 53 | 28 | 37 | 0 | |||||
| Piscataway 1 | NJ | 2026-05-02 22:50 | NJDOT | 52 | 28 | 39 | 0 | |||||
| Piscataway 1 | NJ | 2026-05-02 23:00 | NJDOT | 52 | 28 | 40 | 0 | |||||
| Piscataway 1 | NJ | 2026-05-02 23:05 | NJDOT | 51 | 27 | 39 | 0 | |||||
| Piscataway 1 | NJ | 2026-05-02 23:15 | NJDOT | 52 | 28 | 40 | 0 | |||||
| Piscataway 1 | NJ | 2026-05-02 21:45 | NJDOT | 54 | 28 | 37 | 0 | |||||
| Piscataway 1 | NJ | 2026-05-02 23:20 | NJDOT | 52 | 27 | 38 | 0 | |||||
| Piscataway 1 | NJ | 2026-05-02 23:25 | NJDOT | 51 | 27 | 39 | 0 | |||||
| Piscataway 1 | NJ | 2026-05-02 23:30 | NJDOT | 51 | 28 | 40 | 0 | |||||
| Piscataway 1 | NJ | 2026-05-02 23:35 | NJDOT | 51 | 27 | 39 | 0 | |||||
| Piscataway 1 | NJ | 2026-05-02 23:40 | NJDOT | 51 | 27 | 39 | 0 | |||||
| Piscataway 1 | NJ | 2026-05-02 23:45 | NJDOT | 51 | 27 | 38 | 0 | |||||
| Piscataway 1 | NJ | 2026-05-02 23:50 | NJDOT | 51 | 28 | 40 | 0 | |||||
| Piscataway 1 | NJ | 2026-05-03 00:00 | NJDOT | 51 | 28 | 42 | 0 | |||||
| Piscataway 1 | NJ | 2026-05-03 00:05 | NJDOT | 51 | 28 | 40 | 0 | |||||
| Piscataway 1 | NJ | 2026-05-03 00:10 | NJDOT | 51 | 28 | 40 | 0 | |||||
| Piscataway 1 | NJ | 2026-05-03 00:15 | NJDOT | 51 | 28 | 41 | 0 | |||||
| Piscataway 1 | NJ | 2026-05-03 00:20 | NJDOT | 51 | 28 | 42 | 0 | |||||
| Piscataway 1 | NJ | 2026-05-03 00:25 | NJDOT | 50 | 29 | 43 | 0 | |||||
| Piscataway 1 | NJ | 2026-05-02 21:50 | NJDOT | 54 | 27 | 34 | 0 | |||||
| Piscataway 1 | NJ | 2026-05-02 21:40 | NJDOT | 54 | 28 | 36 | 3 | |||||
| Piscataway 1 | NJ | 2026-05-02 19:00 | NJDOT | 59 | 31 | 35 | 0 | |||||
| Piscataway 1 | NJ | 2026-05-02 20:15 | NJDOT | 56 | 29 | 35 | 0 | |||||
| Piscataway 1 | NJ | 2026-05-02 19:05 | NJDOT | 58 | 29 | 32 | 0 | |||||
| Piscataway 1 | NJ | 2026-05-02 19:10 | NJDOT | 58 | 27 | 30 | 0 | |||||
| Piscataway 1 | NJ | 2026-05-02 19:15 | NJDOT | 58 | 27 | 30 | 0 | |||||
| Piscataway 1 | NJ | 2026-05-02 19:20 | NJDOT | 58 | 30 | 34 | 0 | |||||
| Piscataway 1 | NJ | 2026-05-02 19:25 | NJDOT | 58 | 28 | 32 | 0 | |||||
| Piscataway 1 | NJ | 2026-05-02 19:30 | NJDOT | 58 | 28 | 32 | 0 | |||||
| Piscataway 1 | NJ | 2026-05-02 19:35 | NJDOT | 57 | 28 | 32 | 2 | |||||
| Piscataway 1 | NJ | 2026-05-02 19:40 | NJDOT | 57 | 27 | 31 | 2 | |||||
| Piscataway 1 | NJ | 2026-05-02 19:45 | NJDOT | 57 | 28 | 32 | 0 | |||||
| Piscataway 1 | NJ | 2026-05-02 19:50 | NJDOT | 57 | 28 | 32 | 0 | |||||
| Piscataway 1 | NJ | 2026-05-02 20:00 | NJDOT | 56 | 29 | 34 | 0 | |||||
| Piscataway 1 | NJ | 2026-05-02 20:05 | NJDOT | 56 | 28 | 33 | 0 | |||||
| Piscataway 1 | NJ | 2026-05-02 20:10 | NJDOT | 56 | 29 | 34 | 0 | |||||
| Piscataway 1 | NJ | 2026-05-02 20:20 | NJDOT | 56 | 29 | 35 | 0 | |||||
| Piscataway 1 | NJ | 2026-05-02 21:35 | NJDOT | 54 | 28 | 37 | 3 | |||||
| Piscataway 1 | NJ | 2026-05-02 20:25 | NJDOT | 56 | 29 | 36 | 0 | |||||
| Piscataway 1 | NJ | 2026-05-02 20:30 | NJDOT | 56 | 28 | 34 | 0 | |||||
| Piscataway 1 | NJ | 2026-05-02 20:35 | NJDOT | 56 | 28 | 34 | 0 | |||||
| Piscataway 1 | NJ | 2026-05-02 20:40 | NJDOT | 56 | 30 | 37 | 0 | |||||
| Piscataway 1 | NJ | 2026-05-02 20:45 | NJDOT | 55 | 30 | 37 | 0 | |||||
| Piscataway 1 | NJ | 2026-05-02 20:50 | NJDOT | 55 | 28 | 35 | 0 | |||||
| Piscataway 1 | NJ | 2026-05-02 21:00 | NJDOT | 55 | 28 | 34 | 0 | |||||
| Piscataway 1 | NJ | 2026-05-02 21:05 | NJDOT | 55 | 28 | 35 | 0 | |||||
| Piscataway 1 | NJ | 2026-05-02 21:10 | NJDOT | 55 | 29 | 37 | 0 | |||||
| Piscataway 1 | NJ | 2026-05-02 21:15 | NJDOT | 55 | 30 | 38 | 0 | |||||
| Piscataway 1 | NJ | 2026-05-02 21:20 | NJDOT | 55 | 28 | 35 | 0 | |||||
| Piscataway 1 | NJ | 2026-05-02 21:25 | NJDOT | 54 | 28 | 36 | 0 | |||||
| Piscataway 1 | NJ | 2026-05-02 21:30 | NJDOT | 54 | 29 | 38 | 0 | |||||
| Piscataway 1 | NJ | 2026-05-02 12:40 | NJDOT | 58 | 37 | 45 | 0 | |||||
| Piscataway 1 | NJ | 2026-05-02 12:30 | NJDOT | 59 | 39 | 45 | 0 | |||||
| Piscataway 1 | NJ | 2026-05-02 00:40 | NJDOT | 53 | 41 | 62 | 0 | |||||
| Piscataway 1 | NJ | 2026-05-02 05:00 | NJDOT | 50 | 45 | 83 | 0 | |||||
| Piscataway 1 | NJ | 2026-05-02 03:45 | NJDOT | 50 | 45 | 82 | 0 | |||||
| Piscataway 1 | NJ | 2026-05-02 03:50 | NJDOT | 50 | 45 | 83 | 0 | |||||
| Piscataway 1 | NJ | 2026-05-02 04:00 | NJDOT | 50 | 45 | 83 | 0 | |||||
| Piscataway 1 | NJ | 2026-05-02 04:05 | NJDOT | 50 | 45 | 83 | 0 | |||||
| Piscataway 1 | NJ | 2026-05-02 04:10 | NJDOT | 50 | 45 | 83 | 0 | |||||
| Piscataway 1 | NJ | 2026-05-02 04:15 | NJDOT | 50 | 45 | 83 | 0 | |||||
| Piscataway 1 | NJ | 2026-05-02 04:20 | NJDOT | 50 | 45 | 83 | 0 | |||||
| Piscataway 1 | NJ | 2026-05-02 04:25 | NJDOT | 50 | 45 | 83 | 0 | |||||
| Piscataway 1 | NJ | 2026-05-02 04:30 | NJDOT | 50 | 45 | 82 | 0 | |||||
| Piscataway 1 | NJ | 2026-05-02 04:35 | NJDOT | 50 | 45 | 81 | 0 | |||||
| Piscataway 1 | NJ | 2026-05-02 04:40 | NJDOT | 50 | 45 | 82 | 0 | |||||
| Piscataway 1 | NJ | 2026-05-02 04:45 | NJDOT | 50 | 45 | 82 | 0 | |||||
| Piscataway 1 | NJ | 2026-05-02 04:50 | NJDOT | 50 | 45 | 82 | 0 | |||||
| Piscataway 1 | NJ | 2026-05-02 05:05 | NJDOT | 50 | 46 | 86 | 0 | |||||
| Piscataway 1 | NJ | 2026-05-02 03:35 | NJDOT | 51 | 45 | 81 | 0 | |||||
| Piscataway 1 | NJ | 2026-05-02 05:10 | NJDOT | 50 | 46 | 88 | 0 | |||||
| Piscataway 1 | NJ | 2026-05-02 05:15 | NJDOT | 49 | 46 | 90 | 0 | |||||
| Piscataway 1 | NJ | 2026-05-02 05:20 | NJDOT | 49 | 47 | 92 | 0 | |||||
| Piscataway 1 | NJ | 2026-05-02 05:25 | NJDOT | 49 | 47 | 93 | 0 | |||||
| Piscataway 1 | NJ | 2026-05-02 05:30 | NJDOT | 49 | 47 | 94 | 0 | |||||
| Piscataway 1 | NJ | 2026-05-02 05:35 | NJDOT | 49 | 47 | 94 | 0 | |||||
| Piscataway 1 | NJ | 2026-05-02 05:40 | NJDOT | 49 | 47 | 94 | 0 | |||||
| Piscataway 1 | NJ | 2026-05-02 05:45 | NJDOT | 49 | 47 | 95 | 0 | |||||
| Piscataway 1 | NJ | 2026-05-02 05:50 | NJDOT | 49 | 47 | 95 | 0 | |||||
| Piscataway 1 | NJ | 2026-05-02 06:00 | NJDOT | 48 | 47 | 96 | 0 | |||||
| Piscataway 1 | NJ | 2026-05-02 06:05 | NJDOT | 48 | 47 | 97 | 0 | |||||
| Piscataway 1 | NJ | 2026-05-02 06:10 | NJDOT | 47 | 47 | 97 | 0 | |||||
| Piscataway 1 | NJ | 2026-05-02 06:15 | NJDOT | 47 | 47 | 98 | 0 | |||||
| Piscataway 1 | NJ | 2026-05-02 03:40 | NJDOT | 51 | 45 | 81 | 0 | |||||
| Piscataway 1 | NJ | 2026-05-02 03:30 | NJDOT | 51 | 45 | 79 | 0 | |||||
| Piscataway 1 | NJ | 2026-05-02 06:25 | NJDOT | 47 | 47 | 99 | 0 | |||||
| Piscataway 1 | NJ | 2026-05-02 02:05 | NJDOT | 52 | 43 | 70 | 0 | |||||
| Piscataway 1 | NJ | 2026-05-02 00:45 | NJDOT | 53 | 41 | 62 | 0 | |||||
| Piscataway 1 | NJ | 2026-05-02 00:50 | NJDOT | 53 | 41 | 63 | 0 | |||||
| Piscataway 1 | NJ | 2026-05-02 01:00 | NJDOT | 53 | 42 | 64 | 0 | |||||
| Piscataway 1 | NJ | 2026-05-02 01:05 | NJDOT | 53 | 42 | 64 | 0 | |||||
| Piscataway 1 | NJ | 2026-05-02 01:10 | NJDOT | 53 | 42 | 65 | 0 | |||||
| Piscataway 1 | NJ | 2026-05-02 01:15 | NJDOT | 53 | 42 | 66 | 0 | |||||
| Piscataway 1 | NJ | 2026-05-02 01:20 | NJDOT | 53 | 42 | 66 | 0 | |||||
| Piscataway 1 | NJ | 2026-05-02 01:25 | NJDOT | 53 | 42 | 66 | 0 | |||||
| Piscataway 1 | NJ | 2026-05-02 01:35 | NJDOT | 53 | 43 | 68 | 0 | |||||
| Piscataway 1 | NJ | 2026-05-02 01:40 | NJDOT | 53 | 42 | 67 | 0 | |||||
| Piscataway 1 | NJ | 2026-05-02 01:45 | NJDOT | 53 | 42 | 68 | 0 | |||||
| Piscataway 1 | NJ | 2026-05-02 01:50 | NJDOT | 53 | 42 | 68 | 0 | |||||
| Piscataway 1 | NJ | 2026-05-02 02:00 | NJDOT | 52 | 42 | 69 | 0 | |||||
| Piscataway 1 | NJ | 2026-05-02 02:10 | NJDOT | 52 | 43 | 70 | 0 | |||||
| Piscataway 1 | NJ | 2026-05-02 03:25 | NJDOT | 51 | 45 | 79 | 0 | |||||
| Piscataway 1 | NJ | 2026-05-02 02:15 | NJDOT | 52 | 44 | 72 | 0 | |||||
| Piscataway 1 | NJ | 2026-05-02 02:20 | NJDOT | 52 | 44 | 72 | 0 | |||||
| Piscataway 1 | NJ | 2026-05-02 02:25 | NJDOT | 52 | 44 | 73 | 0 | |||||
| Piscataway 1 | NJ | 2026-05-02 02:30 | NJDOT | 52 | 44 | 75 | 0 | |||||
| Piscataway 1 | NJ | 2026-05-02 02:35 | NJDOT | 52 | 44 | 75 | 0 | |||||
| Piscataway 1 | NJ | 2026-05-02 02:40 | NJDOT | 52 | 44 | 76 | 0 | |||||
| Piscataway 1 | NJ | 2026-05-02 02:45 | NJDOT | 52 | 44 | 76 | 0 | |||||
| Piscataway 1 | NJ | 2026-05-02 02:50 | NJDOT | 52 | 45 | 76 | 0 | |||||
| Piscataway 1 | NJ | 2026-05-02 03:00 | NJDOT | 52 | 45 | 77 | 0 | |||||
| Piscataway 1 | NJ | 2026-05-02 03:05 | NJDOT | 52 | 45 | 77 | 0 | |||||
| Piscataway 1 | NJ | 2026-05-02 03:10 | NJDOT | 52 | 45 | 78 | 0 | |||||
| Piscataway 1 | NJ | 2026-05-02 03:15 | NJDOT | 52 | 45 | 78 | 0 | |||||
| Piscataway 1 | NJ | 2026-05-02 03:20 | NJDOT | 51 | 45 | 78 | 0 | |||||
| Piscataway 1 | NJ | 2026-05-02 06:20 | NJDOT | 47 | 47 | 99 | 0 | |||||
| Piscataway 1 | NJ | 2026-05-02 06:30 | NJDOT | 47 | 47 | 99 | 0 | |||||
| Piscataway 1 | NJ | 2026-05-02 12:25 | NJDOT | 58 | 39 | 44 | 0 | |||||
| Piscataway 1 | NJ | 2026-05-02 11:05 | NJDOT | 55 | 43 | 64 | 0 | |||||
| Piscataway 1 | NJ | 2026-05-02 09:50 | NJDOT | 54 | 45 | 73 | 0 | |||||
| Piscataway 1 | NJ | 2026-05-02 10:00 | NJDOT | 54 | 45 | 72 | 0 | |||||
| Piscataway 1 | NJ | 2026-05-02 10:05 | NJDOT | 54 | 45 | 72 | 0 | |||||
| Piscataway 1 | NJ | 2026-05-02 10:10 | NJDOT | 53 | 44 | 70 | 0 | |||||
| Piscataway 1 | NJ | 2026-05-02 10:15 | NJDOT | 53 | 45 | 71 | 0 | |||||
| Piscataway 1 | NJ | 2026-05-02 10:20 | NJDOT | 54 | 44 | 68 | 0 | |||||
| Piscataway 1 | NJ | 2026-05-02 10:25 | NJDOT | 54 | 44 | 68 | 0 | |||||
| Piscataway 1 | NJ | 2026-05-02 10:30 | NJDOT | 54 | 44 | 67 | 0 | |||||
| Piscataway 1 | NJ | 2026-05-02 10:35 | NJDOT | 55 | 45 | 68 | 0 | |||||
| Piscataway 1 | NJ | 2026-05-02 10:40 | NJDOT | 56 | 44 | 64 | 0 | |||||
| Piscataway 1 | NJ | 2026-05-02 10:45 | NJDOT | 55 | 44 | 67 | 0 | |||||
| Piscataway 1 | NJ | 2026-05-02 10:50 | NJDOT | 56 | 44 | 63 | 0 | |||||
| Piscataway 1 | NJ | 2026-05-02 11:00 | NJDOT | 55 | 42 | 63 | 0 | |||||
| Piscataway 1 | NJ | 2026-05-02 11:10 | NJDOT | 56 | 44 | 64 | 0 | |||||
| Piscataway 1 | NJ | 2026-05-02 09:40 | NJDOT | 53 | 45 | 72 | 0 | |||||
| Piscataway 1 | NJ | 2026-05-02 11:15 | NJDOT | 56 | 43 | 62 | 0 | |||||
| Piscataway 1 | NJ | 2026-05-02 11:20 | NJDOT | 56 | 43 | 60 | 0 | |||||
| Piscataway 1 | NJ | 2026-05-02 11:25 | NJDOT | 56 | 43 | 61 | 0 | |||||
| Piscataway 1 | NJ | 2026-05-02 11:30 | NJDOT | 56 | 43 | 61 | 0 | |||||
| Piscataway 1 | NJ | 2026-05-02 11:35 | NJDOT | 56 | 42 | 59 | 0 | |||||
| Piscataway 1 | NJ | 2026-05-02 11:40 | NJDOT | 56 | 42 | 59 | 0 | |||||
| Piscataway 1 | NJ | 2026-05-02 11:45 | NJDOT | 56 | 41 | 57 | 0 | |||||
| Piscataway 1 | NJ | 2026-05-02 11:50 | NJDOT | 55 | 40 | 56 | 0 | |||||
| Piscataway 1 | NJ | 2026-05-02 12:00 | NJDOT | 57 | 40 | 53 | 0 | |||||
| Piscataway 1 | NJ | 2026-05-02 12:05 | NJDOT | 57 | 40 | 52 | 0 | |||||
| Piscataway 1 | NJ | 2026-05-02 12:10 | NJDOT | 58 | 39 | 48 | 0 | |||||
| Piscataway 1 | NJ | 2026-05-02 12:15 | NJDOT | 58 | 38 | 46 | 0 | |||||
| Piscataway 1 | NJ | 2026-05-02 12:20 | NJDOT | 59 | 39 | 48 | 0 | |||||
| Piscataway 1 | NJ | 2026-05-02 09:45 | NJDOT | 54 | 45 | 71 | 0 | |||||
| Piscataway 1 | NJ | 2026-05-02 09:35 | NJDOT | 53 | 45 | 73 | 0 | |||||
| Piscataway 1 | NJ | 2026-05-02 06:35 | NJDOT | 47 | 47 | 99 | 0 | |||||
| Piscataway 1 | NJ | 2026-05-02 08:10 | NJDOT | 51 | 46 | 81 | 0 | |||||
| Piscataway 1 | NJ | 2026-05-02 07:00 | NJDOT | 48 | 47 | 95 | 0 | |||||
| Piscataway 1 | NJ | 2026-05-02 07:05 | NJDOT | 49 | 47 | 93 | 0 | |||||
| Piscataway 1 | NJ | 2026-05-02 07:10 | NJDOT | 49 | 47 | 92 | 0 | |||||
| Piscataway 1 | NJ | 2026-05-02 07:15 | NJDOT | 49 | 46 | 90 | 0 | |||||
| Piscataway 1 | NJ | 2026-05-02 07:20 | NJDOT | 49 | 47 | 91 | 0 | |||||
| Piscataway 1 | NJ | 2026-05-02 07:25 | NJDOT | 49 | 46 | 88 | 0 | |||||
| Piscataway 1 | NJ | 2026-05-02 07:30 | NJDOT | 50 | 46 | 87 | 0 | |||||
| Piscataway 1 | NJ | 2026-05-02 07:35 | NJDOT | 50 | 46 | 85 | 0 | |||||
| Piscataway 1 | NJ | 2026-05-02 07:40 | NJDOT | 50 | 46 | 85 | 0 | |||||
| Piscataway 1 | NJ | 2026-05-02 07:45 | NJDOT | 50 | 46 | 84 | 0 | |||||
| Piscataway 1 | NJ | 2026-05-02 07:50 | NJDOT | 51 | 46 | 84 | 0 | |||||
| Piscataway 1 | NJ | 2026-05-02 08:00 | NJDOT | 51 | 46 | 83 | 0 | |||||
| Piscataway 1 | NJ | 2026-05-02 08:05 | NJDOT | 51 | 46 | 83 | 0 | |||||
| Piscataway 1 | NJ | 2026-05-02 08:15 | NJDOT | 51 | 46 | 81 | 0 | |||||
| Piscataway 1 | NJ | 2026-05-02 09:30 | NJDOT | 53 | 45 | 74 | 0 | |||||
| Piscataway 1 | NJ | 2026-05-02 08:20 | NJDOT | 51 | 46 | 80 | 0 | |||||
| Piscataway 1 | NJ | 2026-05-02 08:25 | NJDOT | 52 | 46 | 79 | 0 | |||||
| Piscataway 1 | NJ | 2026-05-02 08:30 | NJDOT | 52 | 46 | 79 | 0 | |||||
| Piscataway 1 | NJ | 2026-05-02 08:35 | NJDOT | 52 | 46 | 80 | 0 | |||||
| Piscataway 1 | NJ | 2026-05-02 08:40 | NJDOT | 53 | 46 | 79 | 0 | |||||
| Piscataway 1 | NJ | 2026-05-02 08:45 | NJDOT | 53 | 46 | 77 | 0 | |||||
| Piscataway 1 | NJ | 2026-05-02 08:50 | NJDOT | 53 | 46 | 75 | 0 | |||||
| Piscataway 1 | NJ | 2026-05-02 09:00 | NJDOT | 53 | 45 | 75 | 0 | |||||
| Piscataway 1 | NJ | 2026-05-02 09:05 | NJDOT | 53 | 45 | 75 | 0 | |||||
| Piscataway 1 | NJ | 2026-05-02 09:10 | NJDOT | 53 | 45 | 75 | 0 | |||||
| Piscataway 1 | NJ | 2026-05-02 09:15 | NJDOT | 53 | 45 | 75 | 0 | |||||
| Piscataway 1 | NJ | 2026-05-02 09:20 | NJDOT | 53 | 46 | 77 | 0 | |||||
| Piscataway 1 | NJ | 2026-05-02 09:25 | NJDOT | 53 | 45 | 75 | 0 | |||||
| Piscataway 1 | NJ | 2026-05-03 00:30 | NJDOT | 50 | 28 | 42 | 0 |
data collection created in 0.034872055053711 (queried in 0.009500) rendered in: 0.00034308433532715

